Time;durP1;ratioP1;P1;durP2;ratioP2;P2;SDS_P1;SDS_P2;PMS_P1;PMS_P2;Temp;Humidity;BMP_temperature;BMP_pressure;BME280_temperature;BME280_humidity;BME280_pressure;Samples;Min_cycle;Max_cycle;Signal;HPM_P1;HPM_P2
2022/11/09 00:00:37;;;;;;;36.78;23.38;;;179.70;2252.80;;;;;;5136531;27;20055;-58
2022/11/09 00:03:03;;;;;;;37.40;20.77;;;179.70;2252.80;;;;;;5136164;27;20054;-66
2022/11/09 00:05:28;;;;;;;37.28;22.92;;;179.60;2252.80;;;;;;5136008;27;20026;-59
2022/11/09 00:07:54;;;;;;;24.92;15.30;;;179.60;2252.80;;;;;;5136271;27;20044;-62
2022/11/09 00:10:20;;;;;;;46.33;27.08;;;179.50;2252.80;;;;;;5136278;27;20467;-58
2022/11/09 00:12:45;;;;;;;48.72;28.20;;;179.60;2252.80;;;;;;5135997;27;20049;-67
2022/11/09 00:15:11;;;;;;;40.80;22.73;;;179.50;2252.80;;;;;;5136278;27;20034;-68
2022/11/09 00:17:37;;;;;;;99.75;52.38;;;179.50;2252.80;;;;;;5136159;27;20506;-67
2022/11/09 00:23:24;;;;;;;96.45;51.95;;;179.50;2252.80;;;;;;5135889;27;20026;-68
2022/11/09 00:25:50;;;;;;;113.75;58.25;;;179.40;2252.80;;;;;;5135692;27;20385;-69
2022/11/09 00:28:16;;;;;;;97.63;49.35;;;179.40;2252.80;;;;;;5135975;27;20031;-68
2022/11/09 00:30:41;;;;;;;156.48;83.15;;;179.40;2252.80;;;;;;5136222;27;20460;-60
2022/11/09 00:33:07;;;;;;;529.50;309.80;;;179.40;2252.80;;;;;;5135843;27;20023;-68
2022/11/09 00:35:33;;;;;;;213.98;135.07;;;179.40;2252.80;;;;;;5135571;27;20035;-69
2022/11/09 00:37:59;;;;;;;135.73;85.13;;;179.30;2252.80;;;;;;5135654;27;20062;-58
2022/11/09 00:40:25;;;;;;;102.75;62.53;;;179.20;2252.80;;;;;;5135491;27;20031;-59
2022/11/09 00:42:51;;;;;;;122.65;85.30;;;154.50;2252.80;;;;;;5135337;27;20054;-65
2022/11/09 00:45:16;;;;;;;33.08;20.08;;;154.50;2252.80;;;;;;5135675;27;20031;-59
2022/11/09 00:47:43;;;;;;;34.30;20.05;;;154.50;2252.80;;;;;;5135137;27;20414;-61
2022/11/09 00:53:31;;;;;;;42.58;23.75;;;154.50;2252.80;;;;;;5135204;27;20030;-59
2022/11/09 00:55:58;;;;;;;38.58;23.40;;;154.50;2252.80;;;;;;5135420;27;20027;-65
2022/11/09 00:58:25;;;;;;;28.23;16.95;;;154.50;2252.80;;;;;;5135334;27;20038;-57
2022/11/09 01:00:52;;;;;;;31.92;19.95;;;154.40;2252.80;;;;;;5135048;27;20027;-58
2022/11/09 01:03:19;;;;;;;67.40;39.83;;;154.40;2252.80;;;;;;5135276;27;20413;-67
2022/11/09 01:05:44;;;;;;;98.75;54.80;;;154.40;2252.80;;;;;;5135005;27;20448;-66
2022/11/09 01:08:10;;;;;;;48.42;28.77;;;154.40;2252.80;;;;;;5135102;27;20033;-58
2022/11/09 01:10:40;;;;;;;45.05;26.20;;;154.40;2252.80;;;;;;5134850;27;20433;-66
2022/11/09 01:13:06;;;;;;;70.50;38.60;;;154.40;2252.80;;;;;;5134842;27;20066;-58
2022/11/09 01:15:32;;;;;;;36.33;24.80;;;154.30;2252.80;;;;;;5135120;27;20058;-58
2022/11/09 01:17:57;;;;;;;23.98;13.95;;;154.20;2252.80;;;;;;5134948;27;20463;-64
2022/11/09 01:23:45;;;;;;;40.03;21.20;;;154.10;2252.80;;;;;;5134751;27;20033;-69
2022/11/09 01:26:13;;;;;;;20.02;12.23;;;154.20;2252.80;;;;;;5134863;27;20027;-67
2022/11/09 01:28:39;;;;;;;31.85;20.38;;;154.20;2252.80;;;;;;5134594;27;20035;-58
2022/11/09 01:31:09;;;;;;;46.00;28.23;;;154.30;2252.80;;;;;;5134787;27;20034;-66
2022/11/09 01:33:35;;;;;;;45.08;30.92;;;154.40;2252.80;;;;;;5134840;27;20341;-58
2022/11/09 01:36:03;;;;;;;48.65;29.33;;;154.40;2252.80;;;;;;5134394;27;20027;-61
2022/11/09 01:38:29;;;;;;;47.47;33.38;;;154.50;2252.80;;;;;;5133993;27;20084;-69
2022/11/09 01:40:54;;;;;;;42.58;27.33;;;154.50;2252.80;;;;;;5130816;27;20571;-67
2022/11/09 01:43:22;;;;;;;35.05;23.50;;;154.50;2252.80;;;;;;5130868;27;20030;-58
2022/11/09 01:45:59;;;;;;;32.88;20.00;;;154.50;2252.80;;;;;;5130716;27;20429;-59
2022/11/09 01:48:52;;;;;;;25.20;15.45;;;154.50;2252.80;;;;;;5130977;27;20425;-61
2022/11/09 01:51:27;;;;;;;26.52;16.00;;;154.50;2252.80;;;;;;5136837;27;20054;-59
2022/11/09 01:54:00;;;;;;;37.25;22.95;;;154.50;2252.80;;;;;;5133807;27;20019;-57
2022/11/09 01:56:26;;;;;;;40.88;26.27;;;154.40;2252.80;;;;;;5130679;27;20064;-59
2022/11/09 01:58:53;;;;;;;27.00;14.30;;;154.50;2252.80;;;;;;5129900;27;20038;-57
2022/11/09 02:01:20;;;;;;;12.90;8.77;;;154.40;2252.80;;;;;;5134552;27;20031;-60
2022/11/09 02:03:55;;;;;;;9.48;6.97;;;154.40;2252.80;;;;;;5130852;27;20027;-57
2022/11/09 02:06:22;;;;;;;10.20;6.72;;;154.40;2252.80;;;;;;5130323;27;20023;-58
2022/11/09 02:08:49;;;;;;;17.63;10.25;;;154.40;2252.80;;;;;;5130280;28;20019;-58
2022/11/09 02:11:20;;;;;;;19.98;15.10;;;154.40;2252.80;;;;;;5133440;27;20038;-58
2022/11/09 02:13:52;;;;;;;17.50;12.63;;;154.40;2252.80;;;;;;5130650;28;20044;-58
2022/11/09 02:16:18;;;;;;;12.95;8.90;;;154.50;2252.80;;;;;;5130611;28;20372;-60
2022/11/09 02:18:51;;;;;;;15.07;8.50;;;154.40;2252.80;;;;;;5130849;28;20152;-58
2022/11/09 02:21:18;;;;;;;19.30;10.48;;;154.50;2252.80;;;;;;5133431;27;20023;-58
2022/11/09 02:23:44;;;;;;;19.40;10.85;;;154.50;2252.80;;;;;;5130464;28;20102;-58
2022/11/09 02:26:15;;;;;;;27.00;15.40;;;154.50;2252.80;;;;;;5133206;27;20053;-67
2022/11/09 02:28:41;;;;;;;17.60;10.13;;;154.40;2252.80;;;;;;5130159;28;20019;-67
2022/11/09 02:31:10;;;;;;;11.80;7.30;;;154.40;2252.80;;;;;;5130165;27;20461;-66
2022/11/09 02:34:02;;;;;;;12.50;6.45;;;154.40;2252.80;;;;;;5130332;27;20027;-60
2022/11/09 02:36:27;;;;;;;11.95;6.57;;;154.20;2252.80;;;;;;5132512;27;20031;-59
2022/11/09 02:38:55;;;;;;;10.32;6.38;;;154.20;2252.80;;;;;;5131084;27;20043;-58
2022/11/09 02:41:21;;;;;;;9.05;5.85;;;154.20;2252.80;;;;;;5130394;28;20043;-68
2022/11/09 02:43:51;;;;;;;11.45;6.88;;;154.20;2252.80;;;;;;5130250;27;20072;-58
2022/11/09 02:46:29;;;;;;;14.43;7.75;;;154.20;2252.80;;;;;;5130214;27;20072;-58
2022/11/09 02:48:55;;;;;;;13.73;7.32;;;154.20;2252.80;;;;;;5135831;27;20023;-57
2022/11/09 02:51:21;;;;;;;17.98;10.15;;;154.10;2252.80;;;;;;5131364;27;20027;-59
2022/11/09 02:53:47;;;;;;;14.35;8.77;;;154.20;2252.80;;;;;;5130087;28;20091;-59
2022/11/09 02:56:12;;;;;;;11.77;8.02;;;154.10;2252.80;;;;;;5130372;28;20039;-57
2022/11/09 02:58:38;;;;;;;12.82;8.13;;;154.10;2252.80;;;;;;5130023;28;20027;-58
2022/11/09 03:01:04;;;;;;;11.45;6.07;;;154.10;2252.80;;;;;;5134672;27;20022;-67
2022/11/09 03:03:30;;;;;;;14.15;7.22;;;154.20;2252.80;;;;;;5129775;28;20026;-68
2022/11/09 03:05:55;;;;;;;13.82;8.27;;;154.20;2252.80;;;;;;5135959;27;20380;-69
2022/11/09 03:08:21;;;;;;;12.20;8.98;;;154.30;2252.80;;;;;;5131483;27;20066;-58
2022/11/09 03:10:47;;;;;;;17.80;9.90;;;154.20;2252.80;;;;;;5132978;27;20026;-58
2022/11/09 03:13:12;;;;;;;18.38;10.00;;;154.20;2252.80;;;;;;5133903;27;20055;-69
2022/11/09 03:15:38;;;;;;;15.32;8.50;;;154.20;2252.80;;;;;;5133662;27;20011;-58
2022/11/09 03:18:04;;;;;;;13.98;8.27;;;154.20;2252.80;;;;;;5133770;27;20058;-57
2022/11/09 03:20:29;;;;;;;17.20;7.55;;;154.20;2252.80;;;;;;5133343;27;20019;-58
2022/11/09 03:22:59;;;;;;;13.45;8.25;;;154.20;2252.80;;;;;;5133782;27;20019;-70
2022/11/09 03:25:25;;;;;;;32.45;15.88;;;154.20;2252.80;;;;;;5136489;27;20475;-58
2022/11/09 03:28:00;;;;;;;29.38;15.45;;;154.20;2252.80;;;;;;5133263;27;20050;-58
2022/11/09 03:30:26;;;;;;;28.25;14.25;;;154.20;2252.80;;;;;;5136398;27;20025;-69
2022/11/09 03:32:57;;;;;;;30.88;16.13;;;154.20;2252.80;;;;;;5133101;27;20102;-69
2022/11/09 03:35:23;;;;;;;20.00;12.38;;;154.20;2252.80;;;;;;5133438;27;20011;-66
2022/11/09 03:37:49;;;;;;;14.15;9.00;;;154.20;2252.80;;;;;;5133040;27;20031;-58
2022/11/09 03:40:15;;;;;;;12.02;7.38;;;154.10;2252.80;;;;;;5133542;27;20031;-58
2022/11/09 03:42:45;;;;;;;15.13;8.88;;;154.10;2252.80;;;;;;5133047;27;20159;-59
2022/11/09 03:45:16;;;;;;;24.55;9.52;;;154.10;2252.80;;;;;;5133129;27;20027;-59
2022/11/09 03:47:43;;;;;;;18.60;9.88;;;154.10;2252.80;;;;;;5132902;27;20023;-70
2022/11/09 03:50:10;;;;;;;20.80;12.02;;;154.10;2252.80;;;;;;5132710;27;20019;-58
2022/11/09 03:52:35;;;;;;;19.33;11.07;;;154.10;2252.80;;;;;;5133308;27;20023;-69
2022/11/09 03:55:02;;;;;;;20.02;10.65;;;154.10;2252.80;;;;;;5132823;27;20520;-64
2022/11/09 03:57:28;;;;;;;16.15;10.43;;;154.10;2252.80;;;;;;5132608;27;20023;-59
2022/11/09 03:59:54;;;;;;;15.13;10.05;;;154.10;2252.80;;;;;;5133078;27;20157;-68
2022/11/09 04:02:19;;;;;;;15.15;9.55;;;154.10;2252.80;;;;;;5132522;27;20373;-58
2022/11/09 04:04:45;;;;;;;22.70;13.35;;;154.00;2252.80;;;;;;5133096;27;20027;-58
2022/11/09 04:07:11;;;;;;;25.27;14.20;;;153.80;2252.80;;;;;;5132779;27;20031;-68
2022/11/09 04:09:36;;;;;;;18.75;11.43;;;153.70;2252.80;;;;;;5132693;27;20373;-59
2022/11/09 04:12:03;;;;;;;13.45;8.15;;;153.60;2252.80;;;;;;5132615;27;20023;-64
2022/11/09 04:14:29;;;;;;;14.18;8.13;;;153.60;2252.80;;;;;;5132456;27;20015;-59
2022/11/09 04:16:54;;;;;;;12.38;7.60;;;153.60;2252.80;;;;;;5132506;27;20026;-58
2022/11/09 04:19:20;;;;;;;11.45;6.78;;;153.60;2252.80;;;;;;5132303;27;20065;-58
2022/11/09 04:21:46;;;;;;;9.52;5.82;;;153.60;2252.80;;;;;;5134499;27;20050;-58
2022/11/09 04:24:11;;;;;;;13.50;7.32;;;153.70;2252.80;;;;;;5132261;27;20106;-68
2022/11/09 04:26:37;;;;;;;49.83;25.23;;;153.80;2252.80;;;;;;5132283;27;20026;-57
2022/11/09 04:29:03;;;;;;;50.45;28.92;;;153.80;2252.80;;;;;;5132330;27;20019;-67
2022/11/09 04:31:29;;;;;;;27.63;15.57;;;153.80;2252.80;;;;;;5132088;27;20019;-58
2022/11/09 04:33:54;;;;;;;24.63;12.55;;;153.80;2252.80;;;;;;5132108;27;20050;-58
2022/11/09 04:36:20;;;;;;;19.52;10.20;;;153.80;2252.80;;;;;;5132077;27;20011;-69
2022/11/09 04:38:46;;;;;;;18.35;9.88;;;153.80;2252.80;;;;;;5132023;27;20039;-58
2022/11/09 04:41:12;;;;;;;19.05;9.27;;;154.00;2252.80;;;;;;5131912;27;20484;-62
2022/11/09 04:43:37;;;;;;;11.65;7.38;;;153.70;2252.80;;;;;;5132082;27;20376;-65
2022/11/09 04:46:03;;;;;;;9.52;5.43;;;153.60;2252.80;;;;;;5132043;27;20023;-58
2022/11/09 04:48:30;;;;;;;13.15;7.75;;;153.60;2252.80;;;;;;5131870;27;20119;-60
2022/11/09 04:51:07;;;;;;;12.43;5.90;;;128.90;2252.80;;;;;;5131836;27;20472;-58
2022/11/09 04:53:34;;;;;;;7.55;4.53;;;153.60;2252.80;;;;;;5135008;27;20047;-63
2022/11/09 04:56:00;;;;;;;9.48;5.35;;;153.60;2252.80;;;;;;5131606;27;20017;-58
2022/11/09 04:58:26;;;;;;;13.13;5.05;;;153.60;2252.80;;;;;;5131716;27;20039;-68
2022/11/09 05:00:53;;;;;;;16.70;8.18;;;153.80;2252.80;;;;;;5131577;27;20015;-67
2022/11/09 05:03:19;;;;;;;13.48;8.52;;;153.90;2252.80;;;;;;5131621;27;20027;-59
2022/11/09 05:05:45;;;;;;;16.52;8.18;;;153.90;2252.80;;;;;;5131717;27;20376;-59
2022/11/09 05:08:11;;;;;;;16.35;8.00;;;153.90;2252.80;;;;;;5131214;27;20491;-64
2022/11/09 05:10:37;;;;;;;9.57;5.32;;;154.00;2252.80;;;;;;5131689;27;20023;-59
2022/11/09 05:13:05;;;;;;;7.55;5.13;;;154.00;2252.80;;;;;;5131407;27;20037;-67
2022/11/09 05:15:32;;;;;;;11.85;6.07;;;153.90;2252.80;;;;;;5131232;27;20019;-58
2022/11/09 05:17:58;;;;;;;9.48;6.13;;;153.90;2252.80;;;;;;5131150;27;20027;-56
2022/11/09 05:20:24;;;;;;;12.90;6.80;;;153.80;2252.80;;;;;;5131516;27;20102;-58
2022/11/09 05:25:34;;;;;;;10.68;5.65;;;153.70;2252.80;;;;;;5134257;27;20034;-57
2022/11/09 05:28:00;;;;;;;9.98;5.38;;;153.60;2252.80;;;;;;5130947;27;20457;-58
2022/11/09 05:30:26;;;;;;;9.25;5.57;;;153.70;2252.80;;;;;;5131080;27;20029;-63
2022/11/09 05:32:52;;;;;;;8.30;5.03;;;153.80;2252.80;;;;;;5130791;27;20073;-58
2022/11/09 05:35:18;;;;;;;15.30;7.03;;;153.90;2252.80;;;;;;5130827;27;20023;-58
2022/11/09 05:37:48;;;;;;;11.90;7.28;;;154.10;2252.80;;;;;;5134113;27;20035;-58
2022/11/09 05:40:15;;;;;;;14.98;8.88;;;154.10;2252.80;;;;;;5131036;27;20024;-69
2022/11/09 05:42:41;;;;;;;18.08;9.70;;;154.20;2252.80;;;;;;5130694;27;20039;-59
2022/11/09 05:45:13;;;;;;;17.10;11.77;;;154.30;2252.80;;;;;;5130976;27;20015;-58
2022/11/09 05:47:41;;;;;;;24.10;12.88;;;154.40;2252.80;;;;;;5137418;27;20023;-58
2022/11/09 05:50:09;;;;;;;12.23;6.72;;;154.40;2252.80;;;;;;5130686;27;20023;-58
2022/11/09 05:52:35;;;;;;;11.82;7.72;;;154.40;2252.80;;;;;;5131043;27;20023;-68
2022/11/09 05:55:01;;;;;;;10.20;6.97;;;154.30;2252.80;;;;;;5131257;27;20034;-59
2022/11/09 05:57:27;;;;;;;22.33;10.80;;;154.30;2252.80;;;;;;5133513;27;20472;-58
2022/11/09 05:59:53;;;;;;;11.00;6.50;;;154.20;2252.80;;;;;;5130760;27;20027;-58
2022/11/09 06:02:18;;;;;;;20.98;12.55;;;154.20;2252.80;;;;;;5130841;27;20179;-58
2022/11/09 06:04:44;;;;;;;21.10;12.13;;;154.40;2252.80;;;;;;5130672;27;20039;-58
2022/11/09 06:07:10;;;;;;;41.05;30.08;;;154.50;2252.80;;;;;;5134470;27;20160;-64
2022/11/09 06:09:35;;;;;;;41.72;27.98;;;179.20;2252.80;;;;;;5133298;27;20373;-57
2022/11/09 06:12:01;;;;;;;28.55;22.67;;;179.30;2252.80;;;;;;5133134;27;20156;-58
2022/11/09 06:14:27;;;;;;;27.40;24.58;;;179.30;2252.80;;;;;;5130533;28;20433;-57
2022/11/09 06:16:52;;;;;;;8.88;5.90;;;179.30;2252.80;;;;;;5130527;28;20479;-57
2022/11/09 06:19:18;;;;;;;9.55;6.40;;;179.30;2252.80;;;;;;5137488;27;20038;-58
2022/11/09 06:21:44;;;;;;;7.78;5.60;;;179.20;2252.80;;;;;;5151904;27;20428;-58
2022/11/09 06:24:10;;;;;;;8.13;5.75;;;154.50;2252.80;;;;;;5151486;27;20015;-58
2022/11/09 06:26:36;;;;;;;9.93;7.57;;;179.20;2252.80;;;;;;5151736;27;20083;-58
2022/11/09 06:29:02;;;;;;;11.93;8.50;;;179.40;2252.80;;;;;;5151496;27;20064;-57
2022/11/09 06:31:28;;;;;;;36.53;23.67;;;179.50;2252.80;;;;;;5151559;27;20468;-58
2022/11/09 06:33:53;;;;;;;32.75;19.20;;;179.60;2252.80;;;;;;5151765;27;20068;-58
2022/11/09 06:36:20;;;;;;;29.70;21.20;;;179.60;2252.80;;;;;;5151364;27;20054;-58
2022/11/09 06:38:50;;;;;;;12.60;9.13;;;179.70;2252.80;;;;;;5140909;27;20039;-57
2022/11/09 06:41:16;;;;;;;11.95;8.77;;;179.70;2252.80;;;;;;5130861;28;20408;-58
2022/11/09 06:43:42;;;;;;;13.88;8.63;;;179.80;2252.80;;;;;;5130666;27;20438;-58
2022/11/09 06:46:11;;;;;;;16.40;11.95;;;179.80;2252.80;;;;;;5134567;27;20038;-58
2022/11/09 06:48:38;;;;;;;15.30;9.43;;;180.00;2252.80;;;;;;5134987;27;20015;-59
2022/11/09 06:51:05;;;;;;;28.23;21.23;;;180.10;2252.80;;;;;;5134642;27;20054;-57
2022/11/09 06:53:33;;;;;;;71.75;48.67;;;204.90;2252.80;;;;;;5134687;27;20470;-57
2022/11/09 06:56:01;;;;;;;62.88;42.83;;;205.00;2252.80;;;;;;5134515;27;20027;-61
2022/11/09 06:58:27;;;;;;;39.22;27.63;;;205.30;2252.80;;;;;;5134460;27;20043;-58
2022/11/09 07:00:53;;;;;;;17.15;11.00;;;205.60;2252.80;;;;;;5134461;27;20034;-57
2022/11/09 07:03:20;;;;;;;13.98;8.85;;;205.60;2252.80;;;;;;5134302;27;20027;-58
2022/11/09 07:05:48;;;;;;;15.10;9.00;;;205.70;2252.80;;;;;;5134536;27;20031;-57
2022/11/09 07:08:14;;;;;;;13.00;7.72;;;230.40;2252.80;;;;;;5134455;27;20046;-59
2022/11/09 07:10:40;;;;;;;12.77;9.27;;;230.60;2252.80;;;;;;5134053;27;20461;-59
2022/11/09 07:13:07;;;;;;;12.30;8.43;;;230.60;2252.80;;;;;;5134338;27;20487;-58
2022/11/09 07:15:34;;;;;;;17.08;8.98;;;230.60;2252.80;;;;;;5134193;27;20392;-69
2022/11/09 07:18:02;;;;;;;11.55;7.88;;;230.50;2252.80;;;;;;5134249;27;20082;-64
2022/11/09 07:20:27;;;;;;;10.60;6.90;;;230.50;2252.80;;;;;;5134023;27;20023;-60
2022/11/09 07:22:53;;;;;;;13.45;7.38;;;230.60;2252.80;;;;;;5134202;27;20102;-63
2022/11/09 07:25:19;;;;;;;14.98;9.68;;;230.90;2252.80;;;;;;5133843;27;20030;-60
2022/11/09 07:27:45;;;;;;;13.93;10.27;;;231.30;2252.80;;;;;;5134182;27;20019;-59
2022/11/09 07:30:12;;;;;;;17.67;10.18;;;256.70;2252.80;;;;;;5136447;27;20372;-69
2022/11/09 07:32:38;;;;;;;32.60;23.48;;;281.60;2278.40;;;;;;5143418;27;20105;-60
2022/11/09 07:35:05;;;;;;;41.08;27.25;;;282.00;2278.40;;;;;;5153073;27;20539;-58
2022/11/09 07:37:31;;;;;;;38.53;29.52;;;282.20;2278.40;;;;;;5154415;27;20035;-63
2022/11/09 07:39:57;;;;;;;35.30;23.27;;;282.10;2278.40;;;;;;5154425;27;20110;-58
2022/11/09 07:42:24;;;;;;;20.73;17.80;;;307.50;2304.00;;;;;;5154464;27;20582;-61
2022/11/09 07:44:50;;;;;;;64.28;45.15;;;308.00;2304.00;;;;;;5135554;27;20349;-59
2022/11/09 07:47:19;;;;;;;68.82;54.33;;;359.30;2329.60;;;;;;5154830;27;20156;-58
2022/11/09 07:49:45;;;;;;;51.00;43.00;;;435.60;2355.20;;;;;;5151149;27;20059;-59
2022/11/09 07:52:11;;;;;;;27.42;24.73;;;486.60;2048.00;;;;;;5151495;27;20038;-64
2022/11/09 07:54:38;;;;;;;14.73;13.10;;;512.60;1868.80;;;;;;5154411;27;20025;-59
2022/11/09 07:57:04;;;;;;;15.48;13.85;;;538.40;1740.80;;;;;;5152665;27;20369;-64
2022/11/09 07:59:30;;;;;;;25.40;21.58;;;563.70;1664.00;;;;;;5153756;27;20029;-59
2022/11/09 08:01:57;;;;;;;46.58;41.60;;;589.70;1638.40;;;;;;5154375;27;20023;-64
2022/11/09 08:04:22;;;;;;;31.58;28.33;;;589.00;1638.40;;;;;;5153897;27;20019;-64
2022/11/09 08:06:51;;;;;;;27.35;24.55;;;589.60;1561.60;;;;;;5154049;27;20030;-63
2022/11/09 08:09:17;;;;;;;24.10;21.52;;;589.60;1561.60;;;;;;5154165;27;20026;-59
2022/11/09 08:11:43;;;;;;;62.63;56.25;;;615.00;1510.40;;;;;;5154003;27;20079;-59
2022/11/09 08:14:09;;;;;;;76.10;68.68;;;614.70;1536.00;;;;;;5153659;27;20032;-65
2022/11/09 08:16:34;;;;;;;75.68;68.07;;;614.80;1536.00;;;;;;5153737;27;20421;-64
2022/11/09 08:19:00;;;;;;;77.05;69.30;;;614.40;1536.00;;;;;;5153448;27;20058;-65
2022/11/09 08:21:26;;;;;;;70.50;63.42;;;589.40;1587.20;;;;;;5153904;27;20022;-65
2022/11/09 08:23:51;;;;;;;106.63;96.25;;;614.60;1536.00;;;;;;5153531;27;20071;-58
2022/11/09 08:26:17;;;;;;;109.93;97.90;;;589.50;1587.20;;;;;;5153799;27;20390;-64
2022/11/09 08:28:43;;;;;;;92.68;81.63;;;614.50;1587.20;;;;;;5153706;27;20022;-59
2022/11/09 08:31:09;;;;;;;96.63;86.22;;;589.40;1587.20;;;;;;5153493;27;20035;-59
2022/11/09 08:33:39;;;;;;;100.13;85.35;;;589.20;1612.80;;;;;;5153625;27;20029;-65
2022/11/09 08:36:13;;;;;;;96.07;85.90;;;589.20;1612.80;;;;;;5153300;27;20361;-63
2022/11/09 08:38:39;;;;;;;96.82;86.75;;;614.70;1561.60;;;;;;5153054;27;20045;-59
2022/11/09 08:41:06;;;;;;;93.78;83.68;;;614.50;1561.60;;;;;;5153343;27;20054;-65
2022/11/09 08:43:32;;;;;;;91.35;81.65;;;589.60;1561.60;;;;;;5153331;27;20026;-64
2022/11/09 08:45:57;;;;;;;117.03;104.70;;;614.40;1587.20;;;;;;5153350;27;20441;-59
2022/11/09 08:48:23;;;;;;;109.68;97.78;;;614.40;1561.60;;;;;;5153488;27;20075;-65
2022/11/09 08:50:54;;;;;;;92.03;81.28;;;589.00;1638.40;;;;;;5152993;27;20531;-59
2022/11/09 08:53:20;;;;;;;92.47;80.25;;;588.80;1664.00;;;;;;5153058;27;20018;-60
2022/11/09 08:55:45;;;;;;;85.60;75.57;;;563.90;1664.00;;;;;;5153224;27;20610;-58
2022/11/09 08:58:11;;;;;;;74.65;66.63;;;588.90;1638.40;;;;;;5152696;27;20115;-59
2022/11/09 09:00:37;;;;;;;70.75;62.35;;;588.80;1638.40;;;;;;5152899;27;20440;-65
2022/11/09 09:03:04;;;;;;;75.22;66.90;;;588.90;1612.80;;;;;;5153037;27;20018;-59
2022/11/09 09:05:30;;;;;;;66.88;59.90;;;589.20;1612.80;;;;;;5152695;27;20018;-58
2022/11/09 09:07:58;;;;;;;59.63;53.40;;;589.10;1612.80;;;;;;5152470;27;20027;-65
2022/11/09 09:10:24;;;;;;;57.50;47.42;;;563.90;1638.40;;;;;;5152608;27;20030;-65
2022/11/09 09:12:50;;;;;;;58.45;47.38;;;564.00;1638.40;;;;;;5152429;27;20031;-59
2022/11/09 09:15:15;;;;;;;56.10;48.42;;;563.60;1664.00;;;;;;5152644;27;20023;-61
2022/11/09 09:17:41;;;;;;;58.47;43.75;;;564.00;1664.00;;;;;;5152536;27;20091;-63
2022/11/09 09:20:07;;;;;;;53.50;46.10;;;538.40;1689.60;;;;;;5152630;27;20026;-62
2022/11/09 09:22:33;;;;;;;62.00;51.33;;;538.00;1740.80;;;;;;5152718;27;20387;-63
2022/11/09 09:24:59;;;;;;;53.75;45.03;;;512.50;1766.40;;;;;;5152428;27;20018;-63
2022/11/09 09:27:24;;;;;;;54.60;47.10;;;487.30;1792.00;;;;;;5152553;27;20022;-58
2022/11/09 09:29:50;;;;;;;52.90;41.22;;;487.10;1843.20;;;;;;5152216;27;20031;-63
2022/11/09 09:32:16;;;;;;;51.35;37.25;;;486.60;1894.40;;;;;;5152466;27;20027;-60
2022/11/09 09:34:41;;;;;;;54.88;41.58;;;486.60;1894.40;;;;;;5152335;27;20027;-64
2022/11/09 09:37:07;;;;;;;49.70;35.90;;;486.90;1868.80;;;;;;5152223;27;20019;-60
2022/11/09 09:39:33;;;;;;;43.42;36.70;;;486.70;1894.40;;;;;;5152256;27;20054;-61
2022/11/09 09:42:06;;;;;;;46.83;35.55;;;461.70;1894.40;;;;;;5151891;27;20118;-61
2022/11/09 09:44:50;;;;;;;;;;;486.60;1920.00;;;;;;5152471;27;20050;-61
2022/11/09 09:47:34;;;;;;;46.92;35.40;;;487.10;1894.40;;;;;;5152180;27;19907;-61
2022/11/09 09:50:09;;;;;;;43.38;38.70;;;487.10;1843.20;;;;;;5151921;27;20435;-61
2022/11/09 09:53:03;;;;;;;40.15;34.38;;;512.40;1817.60;;;;;;5152088;27;20023;-61
2022/11/09 09:55:34;;;;;;;44.35;31.92;;;538.20;1766.40;;;;;;5151800;27;20087;-65
2022/11/09 09:58:29;;;;;;;44.00;34.15;;;538.20;1715.20;;;;;;5151606;27;20031;-63
2022/11/09 10:01:04;;;;;;;37.67;30.00;;;563.60;1715.20;;;;;;5152016;27;20030;-62
2022/11/09 10:03:30;;;;;;;33.83;28.38;;;563.20;1689.60;;;;;;5151621;27;20025;-63
2022/11/09 10:06:02;;;;;;;30.15;25.13;;;563.20;1664.00;;;;;;5151856;27;20479;-62
2022/11/09 10:08:30;;;;;;;26.45;22.85;;;512.80;1689.60;;;;;;5151529;27;20033;-62
2022/11/09 10:11:10;;;;;;;27.70;20.25;;;512.40;1715.20;;;;;;5151892;27;20027;-61
2022/11/09 10:13:53;;;;;;;31.83;23.60;;;487.10;1766.40;;;;;;5151806;27;20067;-63
2022/11/09 10:16:25;;;;;;;38.53;23.60;;;486.60;1817.60;;;;;;5151567;27;20375;-64
2022/11/09 10:19:19;;;;;;;28.33;19.27;;;461.40;1894.40;;;;;;5151554;27;20034;-62
2022/11/09 10:22:06;;;;;;;33.72;20.77;;;460.90;1894.40;;;;;;5156357;27;20041;-59
2022/11/09 10:24:35;;;;;;;33.05;23.38;;;460.80;1920.00;;;;;;5155835;27;20019;-56
2022/11/09 10:27:06;;;;;;;26.67;18.88;;;460.90;1920.00;;;;;;5155735;27;20474;-62
2022/11/09 10:29:39;;;;;;;18.45;16.02;;;436.10;1868.80;;;;;;5155750;27;20071;-56
2022/11/09 10:32:22;;;;;;;24.10;17.48;;;435.90;1920.00;;;;;;5156014;27;20030;-56
2022/11/09 10:34:59;;;;;;;25.33;15.55;;;435.80;1945.60;;;;;;5155798;27;20090;-59
2022/11/09 10:37:38;;;;;;;19.23;15.77;;;435.90;1971.20;;;;;;5156079;27;20034;-60
2022/11/09 10:40:20;;;;;;;22.20;17.60;;;435.70;1996.80;;;;;;5155618;27;20038;-57
2022/11/09 10:43:00;;;;;;;23.25;17.65;;;435.80;1996.80;;;;;;5155605;27;20046;-56
2022/11/09 10:45:29;;;;;;;30.40;18.02;;;435.80;2022.40;;;;;;5155622;27;20081;-62
2022/11/09 10:47:55;;;;;;;28.75;17.95;;;435.80;2073.60;;;;;;5156065;27;20034;-59
2022/11/09 10:50:26;;;;;;;25.27;17.10;;;435.70;2048.00;;;;;;5155619;27;20023;-64
2022/11/09 10:53:06;;;;;;;35.67;21.67;;;435.80;2073.60;;;;;;5155573;27;20399;-62
2022/11/09 10:55:35;;;;;;;20.88;14.48;;;435.80;2099.20;;;;;;5155372;27;20030;-62
2022/11/09 10:58:24;;;;;;;22.38;16.05;;;435.80;2099.20;;;;;;5155231;27;20063;-55
2022/11/09 11:01:02;;;;;;;17.85;12.27;;;435.80;2124.80;;;;;;5155148;27;20026;-58
2022/11/09 11:03:29;;;;;;;31.10;18.38;;;435.70;2099.20;;;;;;5155112;27;20030;-57
2022/11/09 11:06:20;;;;;;;14.48;11.20;;;435.90;2099.20;;;;;;5155305;27;20030;-57
2022/11/09 11:09:09;;;;;;;18.77;12.40;;;435.90;2099.20;;;;;;5137037;27;20541;-61
2022/11/09 11:11:36;;;;;;;23.40;15.38;;;436.10;2099.20;;;;;;5141481;27;20471;-62
2022/11/09 11:14:23;;;;;;;35.38;13.40;;;435.90;2124.80;;;;;;5154989;27;20022;-60
2022/11/09 11:16:51;;;;;;;19.92;11.60;;;436.10;2150.40;;;;;;5154714;27;20022;-56
2022/11/09 11:19:35;;;;;;;21.05;13.02;;;436.00;2124.80;;;;;;5155010;27;20603;-63
2022/11/09 11:22:10;;;;;;;20.35;12.98;;;436.00;2099.20;;;;;;5154713;27;20066;-62
2022/11/09 11:25:00;;;;;;;18.52;10.68;;;436.10;2124.80;;;;;;5154849;27;20023;-59
2022/11/09 11:27:43;;;;;;;16.63;10.93;;;436.10;2099.20;;;;;;5154778;27;20483;-61
2022/11/09 11:30:27;;;;;;;19.27;12.27;;;436.10;2099.20;;;;;;5154465;27;20027;-57
2022/11/09 11:32:56;;;;;;;43.25;26.90;;;460.80;2150.40;;;;;;5154861;27;20026;-58
2022/11/09 11:35:29;;;;;;;16.55;9.00;;;460.80;2099.20;;;;;;5154513;27;20366;-60
2022/11/09 11:38:04;;;;;;;16.10;8.32;;;460.80;2048.00;;;;;;5154373;27;20109;-60
2022/11/09 11:40:36;;;;;;;12.45;9.25;;;460.80;2048.00;;;;;;5154661;27;20023;-60
2022/11/09 11:43:10;;;;;;;17.70;12.43;;;460.90;2048.00;;;;;;5154597;27;20126;-61
2022/11/09 11:45:39;;;;;;;;;;;460.90;2048.00;;;;;;5155088;27;20010;-60
2022/11/09 11:48:24;;;;;;;12.70;8.93;;;460.90;2048.00;;;;;;5154487;27;20348;-60
2022/11/09 11:51:17;;;;;;;27.10;15.52;;;461.00;1996.80;;;;;;5154109;27;20030;-60
2022/11/09 11:53:48;;;;;;;16.20;12.05;;;461.20;1996.80;;;;;;5154538;27;20045;-60
2022/11/09 11:56:45;;;;;;;14.13;9.40;;;461.20;1920.00;;;;;;5154329;27;20480;-57
2022/11/09 11:59:29;;;;;;;26.30;18.15;;;461.10;1945.60;;;;;;5153869;27;20479;-61
2022/11/09 12:02:10;;;;;;;19.15;12.15;;;461.20;1945.60;;;;;;5154167;27;20015;-56
2022/11/09 12:04:49;;;;;;;10.52;7.90;;;461.20;1971.20;;;;;;5154239;27;20076;-60
2022/11/09 12:07:51;;;;;;;15.95;10.57;;;461.10;1945.60;;;;;;5154058;27;20379;-60
2022/11/09 12:10:27;;;;;;;16.92;11.73;;;461.20;1945.60;;;;;;5154143;27;20026;-60
2022/11/09 12:12:56;;;;;;;26.92;17.00;;;461.20;1945.60;;;;;;5153684;27;20154;-60
2022/11/09 12:15:38;;;;;;;19.33;12.77;;;461.20;1920.00;;;;;;5153514;27;20030;-60
2022/11/09 12:18:14;;;;;;;11.65;7.85;;;461.10;1971.20;;;;;;5153724;27;20027;-53
2022/11/09 12:21:11;;;;;;;11.07;8.95;;;461.10;1894.40;;;;;;5153735;27;20022;-54
2022/11/09 12:24:00;;;;;;;11.52;6.70;;;461.20;1868.80;;;;;;5153633;27;20029;-61
2022/11/09 12:26:26;;;;;;;18.52;12.40;;;461.20;1843.20;;;;;;5153603;27;20049;-61